createdAt,value
2019-03-13T00:02:31.491Z,7
2019-03-13T00:07:31.481Z,7
2019-03-13T00:12:31.451Z,5
2019-03-13T00:17:31.447Z,6
2019-03-13T00:22:31.462Z,6
2019-03-13T00:27:31.459Z,7
2019-03-13T00:32:31.464Z,7
2019-03-13T00:37:31.421Z,7
2019-03-13T00:42:31.455Z,6
2019-03-13T00:47:31.428Z,6
2019-03-13T00:52:31.445Z,7
2019-03-13T00:57:31.425Z,6
2019-03-13T01:02:31.392Z,7
2019-03-13T01:07:31.381Z,8
2019-03-13T01:12:31.481Z,7
2019-03-13T01:17:31.404Z,6
2019-03-13T01:22:31.386Z,5
2019-03-13T01:27:31.380Z,7
2019-03-13T01:32:31.384Z,6
2019-03-13T01:37:31.350Z,6
2019-03-13T01:42:31.461Z,6
2019-03-13T01:47:31.367Z,6
2019-03-13T01:52:32.496Z,5
2019-03-13T01:57:31.333Z,6
2019-03-13T02:02:31.315Z,6
2019-03-13T02:07:31.325Z,6
2019-03-13T02:12:31.324Z,6
2019-03-13T02:17:31.286Z,7
2019-03-13T02:22:31.314Z,5
2019-03-13T02:27:31.322Z,6
2019-03-13T02:32:31.292Z,6
2019-03-13T02:37:31.283Z,6
2019-03-13T02:42:31.305Z,5
2019-03-13T02:47:31.268Z,6
2019-03-13T02:52:31.298Z,4
2019-03-13T02:57:31.274Z,5
2019-03-13T03:02:31.243Z,5
2019-03-13T03:07:31.276Z,5
2019-03-13T03:12:31.229Z,6
2019-03-13T03:17:31.343Z,4
2019-03-13T03:22:31.266Z,6
2019-03-13T03:27:31.231Z,5
2019-03-13T03:32:31.215Z,6
2019-03-13T03:37:31.261Z,5
2019-03-13T03:42:31.222Z,5
2019-03-13T03:47:31.224Z,4
2019-03-13T03:52:31.196Z,7
2019-03-13T03:57:31.209Z,6
2019-03-13T04:02:31.186Z,6
2019-03-13T04:07:31.227Z,9
2019-03-13T04:12:31.184Z,7
2019-03-13T04:17:31.196Z,8
2019-03-13T04:22:31.179Z,8
2019-03-13T04:27:31.181Z,8
2019-03-13T04:32:31.156Z,8
2019-03-13T04:37:31.167Z,9
2019-03-13T04:42:31.135Z,9
2019-03-13T04:47:31.107Z,11
2019-03-13T04:52:31.158Z,10
2019-03-13T04:57:31.116Z,10
2019-03-13T05:02:31.118Z,11
2019-03-13T05:07:31.104Z,11
2019-03-13T05:12:31.092Z,11
2019-03-13T05:17:31.115Z,12
2019-03-13T05:22:31.119Z,12
2019-03-13T05:27:31.099Z,12
2019-03-13T05:32:31.123Z,13
2019-03-13T05:37:31.081Z,12
2019-03-13T05:42:31.096Z,13
2019-03-13T05:47:31.050Z,13
2019-03-13T05:52:31.087Z,13
2019-03-13T05:57:31.072Z,13
2019-03-13T06:02:31.029Z,13
2019-03-13T06:07:31.099Z,11
2019-03-13T06:12:31.010Z,13
2019-03-13T06:17:31.104Z,10
2019-03-13T06:22:31.057Z,10
2019-03-13T06:27:31.000Z,10
2019-03-13T06:32:31.016Z,11
2019-03-13T06:37:31.003Z,13
2019-03-13T06:42:30.981Z,12
2019-03-13T06:47:31.006Z,11
2019-03-13T06:52:31.915Z,13
2019-03-13T06:57:30.996Z,12
2019-03-13T07:02:30.961Z,11
2019-03-13T07:07:30.948Z,9
2019-03-13T07:12:30.962Z,9
2019-03-13T07:17:30.990Z,10
2019-03-13T07:22:30.929Z,9
2019-03-13T07:27:30.970Z,7
2019-03-13T07:32:30.964Z,7
2019-03-13T07:37:30.931Z,6
2019-03-13T07:42:30.931Z,5
2019-03-13T07:47:30.941Z,5
2019-03-13T07:52:33.087Z,5
2019-03-13T07:57:30.916Z,3
2019-03-13T08:02:30.912Z,3
2019-03-13T08:07:30.896Z,4
2019-03-13T08:12:30.881Z,3
2019-03-13T08:17:30.864Z,3
2019-03-13T08:22:30.869Z,4
2019-03-13T08:27:30.863Z,2
2019-03-13T08:32:30.849Z,3
2019-03-13T08:37:30.872Z,3
2019-03-13T08:42:30.854Z,3
2019-03-13T08:47:30.853Z,3
2019-03-13T08:52:30.884Z,2
2019-03-13T08:57:30.849Z,3
2019-03-13T09:02:30.846Z,3
2019-03-13T09:07:30.862Z,4
2019-03-13T09:12:30.833Z,4
2019-03-13T09:17:30.848Z,3
2019-03-13T09:22:30.846Z,4
2019-03-13T09:27:30.810Z,4
2019-03-13T09:32:30.804Z,4
2019-03-13T09:37:30.801Z,4
2019-03-13T09:42:30.762Z,3
2019-03-13T09:47:30.801Z,3
2019-03-13T09:52:30.745Z,3
2019-03-13T09:57:30.784Z,3
2019-03-13T10:02:30.736Z,3
2019-03-13T10:07:31.653Z,4
2019-03-13T10:12:30.770Z,2
2019-03-13T10:17:30.740Z,2
2019-03-13T10:22:30.721Z,3
2019-03-13T10:27:30.738Z,3
2019-03-13T10:32:31.810Z,3
2019-03-13T10:37:30.711Z,3
2019-03-13T10:42:30.709Z,3
2019-03-13T10:47:30.688Z,3
2019-03-13T10:52:30.695Z,2
2019-03-13T10:57:30.705Z,3
2019-03-13T11:02:30.676Z,3
2019-03-13T11:07:30.675Z,4
2019-03-13T11:12:30.690Z,4
2019-03-13T11:17:30.672Z,4
2019-03-13T11:22:30.652Z,5
2019-03-13T11:27:30.655Z,5
2019-03-13T11:32:30.743Z,6
2019-03-13T11:37:30.674Z,5
2019-03-13T11:42:30.668Z,5
2019-03-13T11:47:42.918Z,7
2019-03-13T11:52:30.679Z,7
2019-03-13T11:57:30.734Z,8
2019-03-13T12:02:30.617Z,8
2019-03-13T12:07:30.638Z,7
2019-03-13T12:12:30.617Z,7
2019-03-13T12:17:30.619Z,8
2019-03-13T12:22:30.635Z,7
2019-03-13T12:27:30.609Z,6
2019-03-13T12:32:30.611Z,8
2019-03-13T12:37:30.619Z,6
2019-03-13T12:42:30.614Z,5
2019-03-13T12:47:30.604Z,6
2019-03-13T12:52:30.595Z,6
2019-03-13T12:57:30.658Z,5
2019-03-13T13:02:30.600Z,5
2019-03-13T13:07:30.576Z,5
2019-03-13T13:12:30.616Z,5
2019-03-13T13:17:30.545Z,4
2019-03-13T13:22:30.573Z,3
2019-03-13T13:27:30.548Z,5
2019-03-13T13:32:30.576Z,4
2019-03-13T13:37:30.591Z,4
2019-03-13T13:42:30.583Z,5
2019-03-13T13:47:30.559Z,5
2019-03-13T13:52:30.542Z,4
2019-03-13T13:57:30.558Z,5
2019-03-13T14:02:30.544Z,5
2019-03-13T14:07:30.628Z,5
2019-03-13T14:12:30.697Z,5
2019-03-13T14:17:30.516Z,6
2019-03-13T14:22:30.514Z,5
2019-03-13T14:27:30.557Z,6
2019-03-13T14:32:30.504Z,5
2019-03-13T14:37:30.484Z,7
2019-03-13T14:42:30.537Z,7
2019-03-13T14:47:30.523Z,5
2019-03-13T14:52:30.474Z,7
2019-03-13T14:57:30.514Z,6
2019-03-13T15:02:30.468Z,7
2019-03-13T15:07:30.472Z,6
2019-03-13T15:12:30.477Z,8
2019-03-13T15:17:30.436Z,8
2019-03-13T15:22:30.438Z,7
2019-03-13T15:27:30.464Z,6
2019-03-13T15:32:30.431Z,7
2019-03-13T15:37:30.429Z,6
2019-03-13T15:42:30.421Z,8
2019-03-13T15:47:30.494Z,8
2019-03-13T15:52:30.436Z,8
2019-03-13T15:57:30.412Z,10
2019-03-13T16:02:30.435Z,8
2019-03-13T16:07:30.422Z,10
2019-03-13T16:12:30.436Z,13
2019-03-13T16:17:30.383Z,14
2019-03-13T16:22:30.360Z,15
2019-03-13T16:27:30.409Z,15
2019-03-13T16:32:39.772Z,18
2019-03-13T16:37:30.389Z,19
2019-03-13T16:42:30.358Z,20
2019-03-13T16:47:30.461Z,22
2019-03-13T16:52:30.340Z,23
2019-03-13T16:57:30.357Z,24
2019-03-13T17:02:30.390Z,26
2019-03-13T17:07:30.350Z,27
2019-03-13T17:12:30.377Z,28
2019-03-13T17:17:30.372Z,28
2019-03-13T17:22:30.386Z,28
2019-03-13T17:27:30.372Z,29
2019-03-13T17:32:30.325Z,29
2019-03-13T17:37:30.328Z,30
2019-03-13T17:42:30.303Z,31
2019-03-13T17:47:30.360Z,29
2019-03-13T17:52:30.342Z,30
2019-03-13T17:57:30.301Z,31
2019-03-13T18:02:30.277Z,30
2019-03-13T18:07:30.304Z,30
2019-03-13T18:12:30.290Z,29
2019-03-13T18:17:30.299Z,26
2019-03-13T18:22:30.270Z,26
2019-03-13T18:27:30.244Z,24
2019-03-13T18:32:42.222Z,27
2019-03-13T18:37:30.233Z,25
2019-03-13T18:42:30.279Z,24
2019-03-13T18:47:30.250Z,26
2019-03-13T18:52:30.243Z,23
2019-03-13T18:57:30.195Z,24
2019-03-13T19:02:30.206Z,23
2019-03-13T19:07:30.247Z,23
2019-03-13T19:12:30.192Z,24
2019-03-13T19:17:30.191Z,24
2019-03-13T19:22:30.211Z,22
2019-03-13T19:27:30.188Z,22
2019-03-13T19:32:30.235Z,23
2019-03-13T19:37:30.173Z,23
2019-03-13T19:42:30.143Z,23
2019-03-13T19:47:34.427Z,23
2019-03-13T19:57:35.974Z,23
2019-03-13T20:02:35.952Z,23
2019-03-13T20:07:36.065Z,24
2019-03-13T20:12:35.985Z,24
2019-03-13T20:17:35.901Z,24
2019-03-13T20:22:35.905Z,24
2019-03-13T20:27:35.904Z,24
2019-03-13T20:32:35.921Z,23
2019-03-13T20:37:35.876Z,23
2019-03-13T20:42:35.924Z,23
2019-03-13T20:47:35.986Z,24
2019-03-13T20:52:36.648Z,24
2019-03-13T20:57:36.625Z,24
2019-03-13T21:02:36.623Z,24
2019-03-13T21:07:36.659Z,24
2019-03-13T21:12:36.593Z,24
2019-03-13T21:17:36.613Z,24
2019-03-13T21:22:36.631Z,24
2019-03-13T21:27:36.630Z,23
2019-03-13T21:32:36.607Z,23
2019-03-13T21:37:36.595Z,24
2019-03-13T21:42:36.611Z,23
2019-03-13T21:47:36.573Z,24
2019-03-13T21:52:36.703Z,24
2019-03-13T21:57:36.549Z,25
2019-03-13T22:02:36.689Z,25
2019-03-13T22:07:36.689Z,24
2019-03-13T22:12:36.602Z,25
2019-03-13T22:17:36.561Z,24
2019-03-13T22:22:36.563Z,24
2019-03-13T22:27:36.513Z,25
2019-03-13T22:32:36.535Z,23
2019-03-13T22:37:36.514Z,24
2019-03-13T22:42:36.532Z,24
2019-03-13T22:47:43.138Z,24
2019-03-13T22:52:37.287Z,22
2019-03-13T22:57:37.226Z,23
2019-03-13T23:02:37.258Z,24
2019-03-13T23:07:37.264Z,23
2019-03-13T23:12:37.226Z,24
2019-03-13T23:17:37.226Z,23
2019-03-13T23:22:37.394Z,23
2019-03-13T23:27:37.227Z,21
2019-03-13T23:32:37.219Z,22
2019-03-13T23:37:37.561Z,22
2019-03-13T23:42:37.170Z,22
2019-03-13T23:47:37.212Z,21
2019-03-13T23:52:37.193Z,21
2019-03-13T23:57:37.275Z,22
